In Rescue
 
Open Full Screen Window  High Contrast Mode
Wind Gusting 00 knots
04
August 19, 2022 6:50 AM EDT
Weather Information
Wind Direction
  140 °
Wind Speed
  04 kt (5 mph)
Wind Gust
  00 kt (0 mph)
Altimeter
29.93 in
Visibility
10 SM
Temperature
18° C
64° F
Dewpoint
13° C
55° F
Humidity
73%
Sky Condition
Broken @ 7,000 ft
Scattered @ 5,500 ft
VFR

METAR KCVX 191050Z AUTO 14004KT 10SM SCT055 BKN070 18/13 A2993 RMK AO2 T01770134

FAA Disclaimer: The data displayed is for advisory purposes only and is not to be used for flight planning or operations.